createdAt,value
2022-11-21T00:01:16.663Z,14.17
2022-11-21T00:03:46.109Z,14.53
2022-11-21T00:06:14.244Z,13.63
2022-11-21T00:08:42.086Z,14.27
2022-11-21T00:11:10.036Z,14.77
2022-11-21T00:13:38.126Z,15.30
2022-11-21T00:16:07.689Z,13.30
2022-11-21T00:18:36.128Z,13.33
2022-11-21T00:21:09.302Z,11.83
2022-11-21T00:23:37.337Z,11.83
2022-11-21T00:26:06.453Z,11.23
2022-11-21T00:28:34.399Z,10.43
2022-11-21T00:31:02.429Z,10.13
2022-11-21T00:33:30.202Z,9.80
2022-11-21T00:35:58.259Z,9.70
2022-11-21T00:38:28.440Z,10.47
2022-11-21T00:40:56.175Z,11.20
2022-11-21T00:43:23.888Z,12.33
2022-11-21T00:45:51.699Z,11.27
2022-11-21T00:48:19.454Z,11.17
2022-11-21T00:50:49.804Z,11.47
2022-11-21T00:53:17.686Z,11.33
2022-11-21T00:55:46.826Z,9.60
2022-11-21T00:58:14.526Z,10.40
2022-11-21T01:00:42.354Z,9.50
2022-11-21T01:03:10.234Z,9.30
2022-11-21T01:05:38.068Z,9.23
2022-11-21T01:08:05.991Z,9.03
2022-11-21T01:10:35.211Z,8.97
2022-11-21T01:13:05.085Z,8.73
2022-11-21T01:15:32.898Z,8.40
2022-11-21T01:18:00.621Z,7.00
2022-11-21T01:20:28.444Z,6.47
2022-11-21T01:22:56.188Z,6.20
2022-11-21T01:25:23.980Z,6.00
2022-11-21T01:27:51.715Z,5.03
2022-11-21T01:30:20.996Z,5.37
2022-11-21T01:32:49.949Z,4.33
2022-11-21T01:35:17.761Z,3.83
2022-11-21T01:37:48.158Z,3.73
2022-11-21T01:40:16.446Z,4.03
2022-11-21T01:42:54.914Z,3.60
2022-11-21T01:45:53.202Z,3.90
2022-11-21T01:48:23.860Z,3.07
2022-11-21T01:50:51.711Z,3.20
2022-11-21T01:53:19.898Z,3.33
2022-11-21T01:55:47.930Z,2.90
2022-11-21T01:58:16.858Z,2.90
2022-11-21T02:00:48.630Z,2.60
2022-11-21T02:03:22.396Z,3.27
2022-11-21T02:05:50.258Z,3.00
2022-11-21T02:08:21.829Z,3.00
2022-11-21T02:10:58.830Z,2.40
2022-11-21T02:13:26.603Z,2.33
2022-11-21T02:15:55.283Z,2.80
2022-11-21T02:18:24.366Z,2.33
2022-11-21T02:20:58.970Z,2.43
2022-11-21T02:23:34.291Z,2.47
2022-11-21T02:26:03.449Z,2.40
2022-11-21T02:28:31.620Z,2.63
2022-11-21T02:30:59.349Z,2.50
2022-11-21T02:33:27.087Z,2.97
2022-11-21T02:35:59.382Z,2.93
2022-11-21T02:38:31.961Z,2.73
2022-11-21T02:41:10.702Z,2.80
2022-11-21T02:43:43.529Z,2.43
2022-11-21T02:46:11.341Z,2.87
2022-11-21T02:48:39.774Z,2.70
2022-11-21T02:51:07.759Z,2.23
2022-11-21T02:53:35.450Z,2.70
2022-11-21T02:56:03.358Z,2.53
2022-11-21T02:58:32.849Z,2.80
2022-11-21T03:01:00.652Z,2.63
2022-11-21T03:03:28.437Z,2.87
2022-11-21T03:05:57.131Z,2.87
2022-11-21T03:08:24.864Z,2.83
2022-11-21T03:10:52.592Z,2.60
2022-11-21T03:13:20.321Z,2.83
2022-11-21T03:15:49.385Z,2.60
2022-11-21T03:18:17.120Z,1.97
2022-11-21T03:20:44.830Z,3.00
2022-11-21T03:23:12.576Z,2.87
2022-11-21T03:25:40.307Z,2.70
2022-11-21T03:28:08.025Z,2.70
2022-11-21T03:30:35.799Z,3.10
2022-11-21T03:33:04.858Z,3.00
2022-11-21T03:35:32.592Z,2.97
2022-11-21T03:38:00.393Z,2.80
2022-11-21T03:40:28.106Z,3.10
2022-11-21T03:42:55.820Z,3.10
2022-11-21T03:45:23.554Z,2.93
2022-11-21T03:47:51.369Z,3.07
2022-11-21T03:50:21.612Z,2.80
2022-11-21T03:52:49.411Z,2.80
2022-11-21T03:55:17.324Z,2.47
2022-11-21T03:57:44.994Z,2.90
2022-11-21T04:00:14.329Z,2.60
2022-11-21T04:02:42.028Z,3.10
2022-11-21T04:05:10.282Z,2.60
2022-11-21T04:07:39.387Z,2.70
2022-11-21T04:10:08.112Z,2.47
2022-11-21T04:12:35.863Z,2.40
2022-11-21T04:15:04.600Z,2.60
2022-11-21T04:17:33.825Z,2.43
2022-11-21T04:20:01.624Z,2.87
2022-11-21T04:22:29.389Z,3.10
2022-11-21T04:24:58.689Z,2.90
2022-11-21T04:27:26.407Z,3.50
2022-11-21T04:29:54.174Z,3.67
2022-11-21T04:32:21.899Z,4.40
2022-11-21T04:34:49.584Z,5.07
2022-11-21T04:37:17.363Z,5.13
2022-11-21T04:39:45.101Z,4.67
2022-11-21T04:42:14.199Z,4.80
2022-11-21T04:44:41.905Z,4.77
2022-11-21T04:47:09.630Z,5.40
2022-11-21T04:49:37.365Z,4.47
2022-11-21T04:52:05.481Z,4.93
2022-11-21T04:54:33.199Z,4.87
2022-11-21T04:57:00.925Z,5.60
2022-11-21T04:59:30.085Z,5.13
2022-11-21T05:01:57.862Z,6.00
2022-11-21T05:04:25.623Z,5.10
2022-11-21T05:06:53.384Z,6.17
2022-11-21T05:09:21.132Z,5.80
2022-11-21T05:12:06.409Z,6.07
2022-11-21T05:14:35.529Z,5.87
2022-11-21T05:17:03.334Z,5.23
2022-11-21T05:19:31.218Z,5.80
2022-11-21T05:21:58.982Z,5.60
2022-11-21T05:24:27.018Z,5.63
2022-11-21T05:26:55.545Z,5.53
2022-11-21T05:29:27.901Z,5.73
2022-11-21T05:31:57.377Z,5.70
2022-11-21T05:34:25.244Z,5.40
2022-11-21T05:36:57.091Z,4.80
2022-11-21T05:39:25.234Z,4.90
2022-11-21T05:41:52.953Z,4.43
2022-11-21T05:44:19.725Z,4.00
2022-11-21T05:46:48.203Z,4.23
2022-11-21T05:49:17.270Z,4.83
2022-11-21T05:51:44.986Z,4.63
2022-11-21T05:54:14.908Z,4.20
2022-11-21T05:56:42.946Z,4.80
2022-11-21T05:59:12.275Z,4.80
2022-11-21T06:02:05.948Z,4.90
2022-11-21T06:04:35.976Z,4.13
2022-11-21T06:07:05.851Z,4.20
2022-11-21T06:09:33.603Z,4.33
2022-11-21T06:12:01.322Z,4.03
2022-11-21T06:14:29.189Z,4.07
2022-11-21T06:16:57.081Z,3.93
2022-11-21T06:19:24.777Z,3.50
2022-11-21T06:21:53.971Z,3.70
2022-11-21T06:24:22.469Z,3.60
2022-11-21T06:26:50.280Z,3.53
2022-11-21T06:29:17.951Z,3.63
2022-11-21T06:31:45.648Z,3.90
2022-11-21T06:34:13.342Z,4.00
2022-11-21T06:36:41.188Z,4.50
2022-11-21T06:39:10.284Z,3.97
2022-11-21T06:41:37.963Z,4.10
2022-11-21T06:44:05.991Z,4.33
2022-11-21T06:46:33.724Z,4.27
2022-11-21T06:49:01.499Z,3.63
2022-11-21T06:51:29.287Z,3.70
2022-11-21T06:53:59.400Z,3.43
2022-11-21T06:56:30.551Z,3.07
2022-11-21T06:58:58.451Z,4.10
2022-11-21T07:01:26.465Z,3.37
2022-11-21T07:03:54.385Z,3.60
2022-11-21T07:06:22.260Z,3.37
2022-11-21T07:09:17.497Z,3.77
2022-11-21T07:11:42.430Z,3.60
2022-11-21T07:14:09.674Z,3.30
2022-11-21T07:16:37.791Z,3.60
2022-11-21T07:19:05.621Z,3.30
2022-11-21T07:21:33.343Z,3.20
2022-11-21T07:24:01.120Z,3.13
2022-11-21T07:26:28.818Z,3.30
2022-11-21T07:28:59.249Z,3.27
2022-11-21T07:31:26.983Z,3.40
2022-11-21T07:33:54.715Z,3.70
2022-11-21T07:36:22.506Z,3.63
2022-11-21T07:38:50.232Z,2.30
2022-11-21T07:41:18.243Z,3.17
2022-11-21T07:43:45.966Z,3.30
2022-11-21T07:46:15.150Z,3.60
2022-11-21T07:48:42.871Z,4.97
2022-11-21T07:51:11.169Z,5.23
2022-11-21T07:53:39.034Z,5.20
2022-11-21T07:56:09.476Z,6.13
2022-11-21T07:58:37.246Z,6.97
2022-11-21T08:01:06.123Z,7.47
2022-11-21T08:03:35.818Z,8.13
2022-11-21T08:06:05.030Z,8.53
2022-11-21T08:08:32.917Z,10.10
2022-11-21T08:11:05.613Z,9.57
2022-11-21T08:13:33.517Z,9.53
2022-11-21T08:16:03.716Z,9.77
2022-11-21T08:18:31.510Z,9.87
2022-11-21T08:21:03.638Z,9.87
2022-11-21T08:23:31.548Z,10.27
2022-11-21T08:25:59.762Z,11.27
2022-11-21T08:28:27.637Z,10.03
2022-11-21T08:30:55.589Z,10.33
2022-11-21T08:33:23.326Z,9.40
2022-11-21T08:35:51.036Z,9.20
2022-11-21T08:38:20.114Z,7.93
2022-11-21T08:41:08.413Z,8.43
2022-11-21T08:43:37.941Z,8.57
2022-11-21T08:46:05.673Z,9.40
2022-11-21T08:48:33.515Z,9.37
2022-11-21T08:51:01.380Z,11.70
2022-11-21T08:53:30.486Z,11.20
2022-11-21T08:56:03.813Z,10.97
2022-11-21T08:58:32.239Z,10.37
2022-11-21T09:01:00.405Z,9.40
2022-11-21T09:03:31.365Z,10.77
2022-11-21T09:06:00.339Z,9.90
2022-11-21T09:08:28.290Z,10.13
2022-11-21T09:10:57.371Z,11.90
2022-11-21T09:13:25.089Z,11.63
2022-11-21T09:16:10.720Z,11.03
2022-11-21T09:18:38.475Z,11.17
2022-11-21T09:21:06.263Z,10.30
2022-11-21T09:23:33.959Z,12.10
2022-11-21T09:26:03.016Z,12.70
2022-11-21T09:28:30.761Z,13.73
2022-11-21T09:30:59.174Z,13.80
2022-11-21T09:33:26.977Z,11.33
2022-11-21T09:35:54.713Z,12.73
2022-11-21T09:38:24.440Z,12.70
2022-11-21T09:40:52.378Z,11.43
2022-11-21T09:43:38.256Z,11.67
2022-11-21T09:46:11.914Z,11.87
2022-11-21T09:48:53.238Z,11.57
2022-11-21T09:51:23.569Z,10.87
2022-11-21T09:53:57.400Z,10.90
2022-11-21T09:56:25.930Z,13.57
2022-11-21T09:59:08.077Z,12.00
2022-11-21T10:01:35.925Z,12.53
2022-11-21T10:04:04.609Z,12.20
2022-11-21T10:06:37.594Z,13.03
2022-11-21T10:09:14.844Z,13.13
2022-11-21T10:12:15.285Z,12.37
2022-11-21T10:14:54.721Z,13.63
2022-11-21T10:17:31.185Z,13.20
2022-11-21T10:20:13.723Z,13.60
2022-11-21T10:22:54.794Z,12.63
2022-11-21T10:25:27.586Z,12.97
2022-11-21T10:28:01.677Z,12.50
2022-11-21T10:30:30.894Z,13.60
2022-11-21T10:33:03.564Z,12.73
2022-11-21T10:35:38.335Z,12.57
2022-11-21T10:38:21.670Z,11.10
2022-11-21T10:40:54.324Z,12.70
2022-11-21T10:43:50.059Z,12.13
2022-11-21T10:46:19.189Z,11.10
2022-11-21T10:48:54.138Z,10.37
2022-11-21T10:51:38.158Z,10.03
2022-11-21T10:54:25.537Z,9.73
2022-11-21T10:56:55.797Z,9.77
2022-11-21T10:59:30.586Z,10.43
2022-11-21T11:02:02.656Z,11.03
2022-11-21T11:04:37.535Z,10.10
2022-11-21T11:07:23.969Z,9.27
2022-11-21T11:09:53.393Z,9.60
2022-11-21T11:12:25.261Z,9.13
2022-11-21T11:14:54.107Z,9.47
2022-11-21T11:17:32.611Z,8.13
2022-11-21T11:20:02.620Z,8.80
2022-11-21T11:22:31.749Z,9.17
2022-11-21T11:25:01.201Z,8.77
2022-11-21T11:27:30.370Z,8.37
2022-11-21T11:29:58.074Z,9.20
2022-11-21T11:32:26.319Z,7.73
2022-11-21T11:35:01.012Z,8.20
2022-11-21T11:37:40.341Z,7.40
2022-11-21T11:40:19.118Z,7.13
2022-11-21T11:43:30.559Z,6.90
2022-11-21T11:46:30.161Z,5.73
2022-11-21T11:49:19.919Z,6.83
2022-11-21T11:51:54.512Z,7.03
2022-11-21T11:54:27.669Z,7.63
2022-11-21T11:56:56.184Z,7.47
2022-11-21T11:59:29.614Z,8.33
2022-11-21T12:02:05.289Z,8.30
2022-11-21T12:04:44.230Z,8.67
2022-11-21T12:10:15.521Z,8.43
2022-11-21T12:12:46.708Z,10.27
2022-11-21T12:15:36.654Z,9.90
2022-11-21T12:18:14.148Z,11.67
2022-11-21T12:20:51.932Z,10.67
2022-11-21T12:23:23.909Z,9.67
2022-11-21T12:26:01.539Z,9.67
2022-11-21T12:28:42.323Z,10.43
2022-11-21T12:31:16.337Z,9.50
2022-11-21T12:33:54.849Z,9.80
2022-11-21T12:36:31.686Z,8.73
2022-11-21T12:39:24.597Z,8.63
2022-11-21T12:42:17.431Z,9.90
2022-11-21T12:45:00.090Z,10.07
2022-11-21T12:48:07.113Z,10.03
2022-11-21T12:51:01.972Z,10.77
2022-11-21T12:53:58.785Z,11.50
2022-11-21T12:56:36.721Z,10.30
2022-11-21T12:59:05.549Z,10.63
2022-11-21T13:01:46.060Z,10.37
2022-11-21T13:04:19.166Z,9.97
2022-11-21T13:06:48.259Z,10.00
2022-11-21T13:09:20.130Z,9.07
2022-11-21T13:12:02.114Z,10.33
2022-11-21T13:14:37.422Z,10.23
2022-11-21T13:17:24.443Z,10.70
2022-11-21T13:19:57.362Z,9.50
2022-11-21T13:22:55.466Z,9.47
2022-11-21T13:25:47.667Z,9.33
2022-11-21T13:28:40.196Z,10.13
2022-11-21T13:31:27.992Z,9.80
2022-11-21T13:33:56.279Z,9.07
2022-11-21T13:36:38.950Z,9.37
2022-11-21T13:39:36.902Z,9.37
2022-11-21T13:42:27.407Z,7.33
2022-11-21T13:44:56.582Z,9.03
2022-11-21T13:48:03.226Z,7.40
2022-11-21T13:50:57.025Z,7.60
2022-11-21T13:53:58.236Z,7.53
2022-11-21T13:56:35.980Z,7.03
2022-11-21T13:59:18.030Z,5.90
2022-11-21T14:02:05.976Z,6.47
2022-11-21T14:05:07.138Z,6.20
2022-11-21T14:07:37.214Z,5.93
2022-11-21T14:10:18.582Z,6.13
2022-11-21T14:12:50.223Z,6.50
2022-11-21T14:15:28.783Z,6.10
2022-11-21T14:17:59.402Z,6.47
2022-11-21T14:20:29.726Z,6.93
2022-11-21T14:23:01.039Z,6.77
2022-11-21T14:25:36.209Z,6.33
2022-11-21T14:28:07.698Z,5.93
2022-11-21T14:30:38.027Z,6.17
2022-11-21T14:33:27.597Z,6.70
2022-11-21T14:35:59.245Z,6.33
2022-11-21T14:38:28.621Z,7.80
2022-11-21T14:41:28.990Z,7.33
2022-11-21T14:44:18.968Z,8.60
2022-11-21T14:46:47.923Z,8.73
2022-11-21T14:49:29.304Z,8.47
2022-11-21T14:52:17.797Z,8.00
2022-11-21T14:55:22.420Z,8.00
2022-11-21T14:57:41.928Z,7.90
2022-11-21T15:00:36.096Z,7.00
2022-11-21T15:03:03.250Z,6.30
2022-11-21T15:06:01.434Z,5.77
2022-11-21T15:08:53.814Z,5.23
2022-11-21T15:11:12.268Z,5.50
2022-11-21T15:14:06.735Z,6.63
2022-11-21T15:16:29.271Z,7.20
2022-11-21T15:18:57.061Z,9.30
2022-11-21T15:21:26.226Z,8.43
2022-11-21T15:23:56.545Z,8.10
2022-11-21T15:26:31.715Z,7.57
2022-11-21T15:29:01.550Z,6.20
2022-11-21T15:31:29.545Z,6.63
2022-11-21T15:34:33.823Z,6.10
2022-11-21T15:37:03.703Z,7.30
2022-11-21T15:39:31.957Z,10.57
2022-11-21T15:42:33.207Z,13.33
2022-11-21T15:45:02.451Z,11.83
2022-11-21T15:47:30.238Z,13.70
2022-11-21T15:49:57.999Z,11.67
2022-11-21T15:52:27.117Z,11.90
2022-11-21T15:54:54.827Z,11.80
2022-11-21T15:57:23.291Z,11.43
2022-11-21T15:59:51.187Z,11.33
2022-11-21T16:02:19.017Z,11.83
2022-11-21T16:04:46.675Z,10.93
2022-11-21T16:07:14.432Z,11.60
2022-11-21T16:09:44.830Z,10.93
2022-11-21T16:12:12.607Z,11.73
2022-11-21T16:14:40.354Z,11.07
2022-11-21T16:17:08.073Z,10.67
2022-11-21T16:19:35.825Z,10.37
2022-11-21T16:22:03.542Z,11.57
2022-11-21T16:24:31.478Z,13.17
2022-11-21T16:27:02.361Z,13.47
2022-11-21T16:29:30.517Z,14.50
2022-11-21T16:31:58.500Z,12.93
2022-11-21T16:34:27.548Z,13.30
2022-11-21T16:36:56.008Z,12.80
2022-11-21T16:39:23.757Z,13.80
2022-11-21T16:41:51.490Z,14.10
2022-11-21T16:44:20.572Z,13.67
2022-11-21T16:46:51.567Z,14.87
2022-11-21T16:49:20.186Z,14.37
2022-11-21T16:51:47.970Z,14.87
2022-11-21T16:54:17.031Z,15.37
2022-11-21T16:56:44.784Z,15.70
2022-11-21T16:59:12.507Z,14.23
2022-11-21T17:01:41.915Z,14.23
2022-11-21T17:04:15.651Z,13.80
2022-11-21T17:06:44.945Z,15.00
2022-11-21T17:09:13.236Z,14.37
2022-11-21T17:11:41.154Z,16.17
2022-11-21T17:14:10.852Z,14.70
2022-11-21T17:16:39.818Z,14.60
2022-11-21T17:19:12.447Z,15.20
2022-11-21T17:21:40.213Z,15.23
2022-11-21T17:24:08.205Z,17.50
2022-11-21T17:26:37.672Z,16.67
2022-11-21T17:29:05.919Z,15.87
2022-11-21T17:31:33.742Z,15.13
2022-11-21T17:34:02.217Z,14.80
2022-11-21T17:36:34.320Z,16.10
2022-11-21T17:39:02.031Z,14.57
2022-11-21T17:41:29.664Z,15.53
2022-11-21T17:43:58.319Z,15.10
2022-11-21T17:46:27.303Z,15.13
2022-11-21T17:48:58.368Z,14.77
2022-11-21T17:51:27.947Z,16.60
2022-11-21T17:53:57.490Z,18.20
2022-11-21T17:56:27.389Z,18.67
2022-11-21T17:58:55.413Z,19.07
2022-11-21T18:01:23.616Z,18.77
2022-11-21T18:03:56.127Z,18.90
2022-11-21T18:06:24.248Z,20.70
2022-11-21T18:08:52.112Z,20.97
2022-11-21T18:11:22.516Z,21.77
2022-11-21T18:13:51.084Z,22.33
2022-11-21T18:16:21.518Z,23.10
2022-11-21T18:18:49.923Z,22.20
2022-11-21T18:21:19.636Z,21.93
2022-11-21T18:23:47.400Z,22.27
2022-11-21T18:26:16.639Z,23.33
2022-11-21T18:28:46.851Z,20.60
2022-11-21T18:31:16.645Z,22.70
2022-11-21T18:33:45.259Z,23.13
2022-11-21T18:36:13.352Z,22.50
2022-11-21T18:38:58.354Z,21.57
2022-11-21T18:41:34.057Z,21.13
2022-11-21T18:44:04.654Z,20.00
2022-11-21T18:46:34.367Z,18.93
2022-11-21T18:49:06.057Z,19.93
2022-11-21T18:51:35.567Z,19.83
2022-11-21T18:54:06.633Z,18.00
2022-11-21T18:56:35.364Z,19.17
2022-11-21T18:59:05.779Z,16.70
2022-11-21T19:01:34.978Z,14.67
2022-11-21T19:04:02.857Z,15.47
2022-11-21T19:06:30.723Z,14.23
2022-11-21T19:08:59.637Z,14.60
2022-11-21T19:11:29.152Z,13.17
2022-11-21T19:13:59.188Z,12.00
2022-11-21T19:16:31.082Z,11.30
2022-11-21T19:19:33.186Z,11.53
2022-11-21T19:21:47.236Z,10.20
2022-11-21T19:24:15.793Z,11.00
2022-11-21T19:26:44.245Z,10.83
2022-11-21T19:29:12.087Z,11.87
2022-11-21T19:31:45.793Z,10.03
2022-11-21T19:34:14.278Z,10.90
2022-11-21T19:36:42.990Z,10.83
2022-11-21T19:39:10.827Z,10.57
2022-11-21T19:41:38.719Z,11.30
2022-11-21T19:44:06.689Z,10.63
2022-11-21T19:46:36.302Z,11.47
2022-11-21T19:49:06.813Z,11.40
2022-11-21T19:51:36.896Z,13.60
2022-11-21T19:54:05.326Z,14.50
2022-11-21T19:56:33.743Z,16.47
2022-11-21T19:59:01.591Z,15.57
2022-11-21T20:01:31.434Z,15.93
2022-11-21T20:04:01.361Z,15.77
2022-11-21T20:06:32.698Z,16.00
2022-11-21T20:09:02.553Z,15.83
2022-11-21T20:11:31.966Z,16.03
2022-11-21T20:14:00.238Z,14.43
2022-11-21T20:16:30.481Z,14.27
2022-11-21T20:19:01.048Z,14.17
2022-11-21T20:21:30.926Z,13.70
2022-11-21T20:23:59.291Z,14.50
2022-11-21T20:26:27.969Z,14.07
2022-11-21T20:28:56.513Z,15.27
2022-11-21T20:31:27.043Z,15.13
2022-11-21T20:33:56.892Z,15.27
2022-11-21T20:36:26.283Z,16.13
2022-11-21T20:38:56.722Z,16.73
2022-11-21T20:41:26.862Z,16.17
2022-11-21T20:46:43.640Z,16.10
2022-11-21T20:49:12.441Z,15.90
2022-11-21T20:54:29.732Z,17.30
2022-11-21T20:56:57.627Z,18.00
2022-11-21T20:59:27.482Z,16.73
2022-11-21T21:01:55.823Z,16.87
2022-11-21T21:04:23.604Z,16.93
2022-11-21T21:06:51.330Z,16.63
2022-11-21T21:09:19.072Z,17.30
2022-11-21T21:11:53.095Z,17.20
2022-11-21T21:14:21.739Z,17.73
2022-11-21T21:16:49.877Z,17.47
2022-11-21T21:19:17.795Z,16.90
2022-11-21T21:21:45.823Z,17.63
2022-11-21T21:24:13.893Z,17.23
2022-11-21T21:26:43.894Z,17.70
2022-11-21T21:29:14.938Z,17.97
2022-11-21T21:31:49.943Z,17.17
2022-11-21T21:34:18.194Z,16.93
2022-11-21T21:36:45.941Z,17.67
2022-11-21T21:39:13.744Z,18.67
2022-11-21T21:41:44.590Z,18.73
2022-11-21T21:44:14.019Z,17.57
2022-11-21T21:46:41.923Z,20.20
2022-11-21T21:49:09.738Z,19.30
2022-11-21T21:51:38.452Z,21.60
2022-11-21T21:54:06.689Z,20.47
2022-11-21T21:56:34.688Z,20.00
2022-11-21T21:59:02.538Z,19.23
2022-11-21T22:01:33.371Z,20.73
2022-11-21T22:04:03.570Z,22.23
2022-11-21T22:06:33.424Z,20.20
2022-11-21T22:09:01.313Z,19.73
2022-11-21T22:11:31.206Z,19.53
2022-11-21T22:14:01.177Z,19.47
2022-11-21T22:16:29.595Z,20.37
2022-11-21T22:18:59.084Z,22.03
2022-11-21T22:21:28.762Z,19.67
2022-11-21T22:26:46.161Z,20.53
2022-11-21T22:29:13.931Z,20.50
2022-11-21T22:31:41.673Z,19.97
2022-11-21T22:34:13.555Z,19.47
2022-11-21T22:36:41.612Z,19.13
2022-11-21T22:39:10.037Z,18.70
2022-11-21T22:41:37.795Z,19.13
2022-11-21T22:44:06.522Z,19.60
2022-11-21T22:46:34.299Z,19.60
2022-11-21T22:49:02.158Z,18.90
2022-11-21T22:51:31.259Z,18.77
2022-11-21T22:53:59.080Z,18.03
2022-11-21T22:56:27.505Z,17.60
2022-11-21T22:58:56.019Z,15.83
2022-11-21T23:01:25.547Z,14.83
2022-11-21T23:03:55.496Z,14.30
2022-11-21T23:06:25.028Z,16.23
2022-11-21T23:08:55.325Z,18.40
2022-11-21T23:11:26.116Z,19.03
2022-11-21T23:13:55.371Z,19.53
2022-11-21T23:16:24.108Z,17.67
2022-11-21T23:18:53.009Z,18.33
2022-11-21T23:21:21.093Z,18.30
2022-11-21T23:23:49.072Z,18.13
2022-11-21T23:26:18.187Z,18.83
2022-11-21T23:28:45.894Z,18.40
2022-11-21T23:31:13.658Z,19.70
2022-11-21T23:33:41.469Z,19.10
2022-11-21T23:36:09.199Z,16.33
2022-11-21T23:38:36.939Z,16.30
2022-11-21T23:41:04.895Z,16.30
2022-11-21T23:43:33.998Z,16.70
2022-11-21T23:46:01.809Z,15.23
2022-11-21T23:48:29.624Z,15.43
2022-11-21T23:50:57.524Z,14.97
2022-11-21T23:53:25.250Z,14.73
2022-11-21T23:55:52.971Z,13.83
2022-11-21T23:58:20.697Z,14.70
